Craigmont, Idaho
Current Conditions -  °F | °C
As of 9:55 AM on Monday 22 Dec 2014 (Local Time) from KGIC Reporting Station
Scattered Clouds Scattered Clouds  
Wind Chill: 32°   Ceiling: Unl
Heat Index: 39°   Visibility: 10mi
Dew Point: 33°   Wind: 12mph
Humidity: 79%   Direction: 240°WSW
Pressure: 30.19"   Gusts: NA
Location:  46.24°N, 116.47°W
Report Text: KGIC 221755Z AUTO 24010KT 10SM SCT043 SCT048 04/01 A3019 RMK AO1 60001 T00390005 10155 21099
Loading
Personal Weather Stations






























Interactive Weather Map New forecast layout! Learn more

10-Day Weather Forecast

Advertisements
Track Severe Weather on mobile